createdAt,value
2019-02-17T00:00:36.163Z,100985.94
2019-02-17T00:01:24.232Z,100982.17
2019-02-17T00:02:01.170Z,100986.20
2019-02-17T00:02:37.411Z,100988.34
2019-02-17T00:03:13.377Z,100991.56
2019-02-17T00:03:49.596Z,100993.44
2019-02-17T00:04:25.711Z,100991.03
2019-02-17T00:05:01.781Z,100990.77
2019-02-17T00:05:37.962Z,100991.29
2019-02-17T00:06:14.019Z,100999.63
2019-02-17T00:06:49.957Z,100993.70
2019-02-17T00:07:26.030Z,100988.30
2019-02-17T00:08:02.201Z,100986.13
2019-02-17T00:08:38.266Z,100996.34
2019-02-17T00:09:15.003Z,100993.37
2019-02-17T00:09:51.127Z,100996.09
2019-02-17T00:10:27.297Z,100993.38
2019-02-17T00:11:03.291Z,100996.09
2019-02-17T00:11:39.546Z,100994.73
2019-02-17T00:12:15.889Z,101000.37
2019-02-17T00:12:52.178Z,100991.20
2019-02-17T00:13:28.386Z,100995.49
2019-02-17T00:14:04.600Z,100994.13
2019-02-17T00:14:40.875Z,100994.66
2019-02-17T00:15:17.269Z,100997.05
2019-02-17T00:15:53.474Z,100992.48
2019-02-17T00:16:29.735Z,100997.31
2019-02-17T00:17:05.991Z,100994.32
2019-02-17T00:17:42.292Z,100998.89
2019-02-17T00:18:18.222Z,100999.41
2019-02-17T00:18:54.336Z,100999.94
2019-02-17T00:19:30.392Z,101004.51
2019-02-17T00:20:08.158Z,101001.80
2019-02-17T00:20:44.530Z,101005.83
2019-02-17T00:21:20.679Z,101002.33
2019-02-17T00:21:56.805Z,101002.86
2019-02-17T00:22:33.014Z,100999.33
2019-02-17T00:23:09.127Z,101008.75
2019-02-17T00:23:45.390Z,101004.98
2019-02-17T00:24:21.583Z,101006.86
2019-02-17T00:24:57.697Z,101011.13
2019-02-17T00:25:33.931Z,101014.34
2019-02-17T00:26:10.127Z,101014.34
2019-02-17T00:26:46.320Z,101006.25
2019-02-17T00:27:22.632Z,101010.56
2019-02-17T00:27:58.806Z,101010.55
2019-02-17T00:28:35.078Z,101013.22
2019-02-17T00:29:11.240Z,101010.24
2019-02-17T00:29:47.279Z,101015.90
2019-02-17T00:30:23.570Z,101018.30
2019-02-17T00:30:59.554Z,101018.27
2019-02-17T00:31:35.753Z,101022.82
2019-02-17T00:32:12.021Z,101019.33
2019-02-17T00:32:48.168Z,101017.41
2019-02-17T00:33:24.132Z,101017.92
2019-02-17T00:34:00.272Z,101023.02
2019-02-17T00:34:36.422Z,101018.69
2019-02-17T00:35:12.685Z,101018.69
2019-02-17T00:35:48.956Z,101022.97
2019-02-17T00:36:25.313Z,101022.66
2019-02-17T00:37:01.513Z,101022.92
2019-02-17T00:37:37.585Z,101025.34
2019-02-17T00:38:13.813Z,101029.11
2019-02-17T00:38:49.849Z,101033.14
2019-02-17T00:39:26.122Z,101028.54
2019-02-17T00:40:02.151Z,101032.80
2019-02-17T00:40:38.464Z,101032.80
2019-02-17T00:41:14.746Z,101029.00
2019-02-17T00:41:50.732Z,101026.83
2019-02-17T00:42:26.774Z,101023.09
2019-02-17T00:43:02.868Z,101026.51
2019-02-17T00:43:38.867Z,101028.93
2019-02-17T00:44:14.894Z,101031.05
2019-02-17T00:44:50.900Z,101032.32
2019-02-17T00:45:26.857Z,101032.32
2019-02-17T00:46:02.882Z,101022.84
2019-02-17T00:46:39.080Z,101034.42
2019-02-17T00:47:15.239Z,101034.65
2019-02-17T00:47:51.247Z,101028.73
2019-02-17T00:48:27.226Z,101036.14
2019-02-17T00:49:03.394Z,101039.90
2019-02-17T00:49:39.660Z,101039.90
2019-02-17T00:50:15.935Z,101040.96
2019-02-17T00:50:51.988Z,101030.12
2019-02-17T00:51:28.130Z,101030.12
2019-02-17T00:52:04.088Z,101035.91
2019-02-17T00:52:40.364Z,101035.91
2019-02-17T00:53:16.486Z,101034.52
2019-02-17T00:53:52.631Z,101034.52
2019-02-17T00:54:28.774Z,101044.72
2019-02-17T00:55:04.803Z,101038.77
2019-02-17T00:55:41.013Z,101034.16
2019-02-17T00:56:17.200Z,101035.44
2019-02-17T00:56:53.437Z,101038.84
2019-02-17T00:57:29.542Z,101037.81
2019-02-17T00:58:05.715Z,101042.83
2019-02-17T00:58:41.811Z,101041.21
2019-02-17T00:59:17.830Z,101041.21
2019-02-17T00:59:54.009Z,101039.52
2019-02-17T01:00:30.026Z,101046.25
2019-02-17T01:01:06.133Z,101040.03
2019-02-17T01:01:42.213Z,101058.31
2019-02-17T01:02:18.472Z,101041.82
2019-02-17T01:02:54.726Z,101041.82
2019-02-17T01:03:30.902Z,101047.70
2019-02-17T01:04:06.985Z,101049.56
2019-02-17T01:04:43.058Z,101053.53
2019-02-17T01:05:19.315Z,101050.53
2019-02-17T01:05:55.722Z,101047.28
2019-02-17T01:06:31.837Z,101048.63
2019-02-17T01:07:07.934Z,101046.19
2019-02-17T01:07:44.199Z,101052.28
2019-02-17T01:08:20.291Z,101054.42
2019-02-17T01:08:56.524Z,101051.72
2019-02-17T01:09:32.546Z,101063.52
2019-02-17T01:10:09.338Z,101055.36
2019-02-17T01:10:45.600Z,101059.88
2019-02-17T01:11:21.819Z,101059.88
2019-02-17T01:11:57.799Z,101059.83
2019-02-17T01:12:33.841Z,101065.20
2019-02-17T01:13:10.003Z,101064.89
2019-02-17T01:13:46.144Z,101061.59
2019-02-17T01:14:22.241Z,101065.31
2019-02-17T01:14:58.508Z,101059.30
2019-02-17T01:15:34.879Z,101067.34
2019-02-17T01:16:11.087Z,101067.28
2019-02-17T01:16:47.285Z,101069.09
2019-02-17T01:17:23.446Z,101069.55
2019-02-17T01:17:59.623Z,101069.45
2019-02-17T01:18:35.873Z,101058.67
2019-02-17T01:19:12.179Z,101069.36
2019-02-17T01:19:48.178Z,101072.88
2019-02-17T01:20:24.216Z,101068.50
2019-02-17T01:21:00.441Z,101074.95
2019-02-17T01:21:36.487Z,101074.61
2019-02-17T01:22:12.728Z,101074.81
2019-02-17T01:22:48.852Z,101071.75
2019-02-17T01:23:25.075Z,101068.69
2019-02-17T01:24:01.249Z,101069.72
2019-02-17T01:24:37.368Z,101073.19
2019-02-17T01:25:13.533Z,101070.72
2019-02-17T01:25:49.626Z,101076.05
2019-02-17T01:26:25.711Z,101067.61
2019-02-17T01:27:01.857Z,101070.02
2019-02-17T01:27:38.136Z,101080.26
2019-02-17T01:28:14.291Z,101073.12
2019-02-17T01:28:50.490Z,101076.06
2019-02-17T01:29:26.689Z,101078.73
2019-02-17T01:30:02.916Z,101079.73
2019-02-17T01:30:39.097Z,101081.08
2019-02-17T01:31:15.356Z,101077.27
2019-02-17T01:31:51.495Z,101079.23
2019-02-17T01:32:27.668Z,101083.80
2019-02-17T01:33:03.681Z,101079.98
2019-02-17T01:33:39.909Z,101079.65
2019-02-17T01:34:15.859Z,101082.61
2019-02-17T01:34:52.074Z,101085.52
2019-02-17T01:35:28.080Z,101083.03
2019-02-17T01:36:04.245Z,101087.84
2019-02-17T01:36:40.398Z,101080.70
2019-02-17T01:37:16.341Z,101082.81
2019-02-17T01:37:52.443Z,101087.13
2019-02-17T01:38:28.545Z,101088.73
2019-02-17T01:39:05.766Z,101088.13
2019-02-17T01:39:41.835Z,101085.66
2019-02-17T01:40:18.052Z,101087.82
2019-02-17T01:40:54.229Z,101092.39
2019-02-17T01:41:30.254Z,101092.08
2019-02-17T01:42:06.351Z,101089.59
2019-02-17T01:42:42.440Z,101092.25
2019-02-17T01:43:18.653Z,101087.32
2019-02-17T01:43:54.900Z,101086.70
2019-02-17T01:44:31.250Z,101092.94
2019-02-17T01:45:07.730Z,101084.98
2019-02-17T01:45:43.731Z,101090.97
2019-02-17T01:46:19.898Z,101084.98
2019-02-17T01:46:56.077Z,101092.02
2019-02-17T01:47:32.349Z,101094.98
2019-02-17T01:48:08.469Z,101092.82
2019-02-17T01:48:44.645Z,101099.24
2019-02-17T01:49:20.787Z,101097.03
2019-02-17T01:49:56.989Z,101104.31
2019-02-17T01:50:33.105Z,101099.62
2019-02-17T01:51:09.430Z,101096.05
2019-02-17T01:51:45.583Z,101104.69
2019-02-17T01:52:21.729Z,101100.86
2019-02-17T01:52:57.861Z,101101.41
2019-02-17T01:53:34.036Z,101103.58
2019-02-17T01:54:10.052Z,101104.37
2019-02-17T01:54:46.366Z,101104.07
2019-02-17T01:55:22.726Z,101105.18
2019-02-17T01:55:58.815Z,101102.34
2019-02-17T01:56:34.972Z,101099.02
2019-02-17T01:57:11.085Z,101102.75
2019-02-17T01:57:47.120Z,101100.77
2019-02-17T01:58:23.296Z,101106.95
2019-02-17T01:58:59.445Z,101103.86
2019-02-17T01:59:35.617Z,101107.31
2019-02-17T02:00:13.084Z,101105.34
2019-02-17T02:00:49.178Z,101103.67
2019-02-17T02:01:25.228Z,101106.70
2019-02-17T02:02:01.662Z,101104.78
2019-02-17T02:02:38.092Z,101102.00
2019-02-17T02:03:14.411Z,101108.80
2019-02-17T02:03:50.708Z,101109.10
2019-02-17T02:04:26.929Z,101113.73
2019-02-17T02:05:03.343Z,101118.86
2019-02-17T02:05:39.455Z,101113.42
2019-02-17T02:06:15.633Z,101116.11
2019-02-17T02:06:51.916Z,101115.48
2019-02-17T02:07:28.032Z,101116.50
2019-02-17T02:08:04.080Z,101115.88
2019-02-17T02:08:40.120Z,101119.89
2019-02-17T02:09:16.075Z,101124.95
2019-02-17T02:09:52.026Z,101116.73
2019-02-17T02:10:28.016Z,101126.74
2019-02-17T02:11:04.203Z,101125.91
2019-02-17T02:11:40.181Z,101124.80
2019-02-17T02:12:16.435Z,101123.30
2019-02-17T02:12:52.629Z,101122.75
2019-02-17T02:13:28.763Z,101125.95
2019-02-17T02:14:06.417Z,101126.52
2019-02-17T02:14:42.837Z,101126.13
2019-02-17T02:15:18.951Z,101129.09
2019-02-17T02:15:55.067Z,101124.15
2019-02-17T02:16:31.094Z,101127.36
2019-02-17T02:17:07.043Z,101124.33
2019-02-17T02:17:43.154Z,101126.39
2019-02-17T02:18:19.307Z,101130.08
2019-02-17T02:18:55.515Z,101130.57
2019-02-17T02:19:31.461Z,101134.09
2019-02-17T02:20:08.407Z,101133.81
2019-02-17T02:20:44.549Z,101135.97
2019-02-17T02:21:20.911Z,101140.09
2019-02-17T02:21:57.107Z,101133.60
2019-02-17T02:22:33.241Z,101136.25
2019-02-17T02:23:09.318Z,101137.89
2019-02-17T02:23:45.488Z,101134.30
2019-02-17T02:24:21.625Z,101138.87
2019-02-17T02:24:57.901Z,101140.47
2019-02-17T02:25:34.102Z,101146.64
2019-02-17T02:26:10.170Z,101134.89
2019-02-17T02:26:46.268Z,101137.61
2019-02-17T02:27:22.409Z,101136.45
2019-02-17T02:27:58.567Z,101141.09
2019-02-17T02:28:34.725Z,101136.25
2019-02-17T02:29:10.666Z,101136.14
2019-02-17T02:29:46.847Z,101138.23
2019-02-17T02:30:22.859Z,101136.39
2019-02-17T02:30:59.043Z,101131.44
2019-02-17T02:31:35.243Z,101135.20
2019-02-17T02:32:11.289Z,101127.84
2019-02-17T02:32:47.428Z,101133.53
2019-02-17T02:33:23.485Z,101137.68
2019-02-17T02:33:59.527Z,101130.25
2019-02-17T02:34:35.887Z,101134.26
2019-02-17T02:35:12.066Z,101132.58
2019-02-17T02:35:48.243Z,101136.59
2019-02-17T02:36:25.733Z,101128.75
2019-02-17T02:37:01.984Z,101128.67
2019-02-17T02:37:38.229Z,101133.56
2019-02-17T02:38:14.873Z,101134.05
2019-02-17T02:38:50.937Z,101133.88
2019-02-17T02:39:27.213Z,101136.28
2019-02-17T02:40:03.374Z,101136.03
2019-02-17T02:40:39.511Z,101137.71
2019-02-17T02:41:15.594Z,101137.08
2019-02-17T02:41:51.617Z,101143.25
2019-02-17T02:42:27.787Z,101141.09
2019-02-17T02:43:04.114Z,101134.73
2019-02-17T02:43:40.155Z,101140.34
2019-02-17T02:44:16.436Z,101139.54
2019-02-17T02:44:52.647Z,101140.75
2019-02-17T02:45:28.723Z,101140.37
2019-02-17T02:46:05.138Z,101137.64
2019-02-17T02:46:41.413Z,101142.24
2019-02-17T02:47:17.557Z,101143.61
2019-02-17T02:47:53.497Z,101142.48
2019-02-17T02:48:29.753Z,101140.77
2019-02-17T02:49:06.031Z,101146.06
2019-02-17T02:49:42.119Z,101144.63
2019-02-17T02:50:18.329Z,101149.92
2019-02-17T02:50:54.670Z,101147.92
2019-02-17T02:51:31.051Z,101142.40
2019-02-17T02:52:07.095Z,101149.93
2019-02-17T02:52:43.052Z,101145.13
2019-02-17T02:53:19.306Z,101142.08
2019-02-17T02:53:55.486Z,101149.93
2019-02-17T02:54:31.772Z,101148.33
2019-02-17T02:55:08.195Z,101140.96
2019-02-17T02:55:44.363Z,101143.88
2019-02-17T02:56:20.573Z,101140.20
2019-02-17T02:56:56.666Z,101141.97
2019-02-17T02:57:32.773Z,101144.05
2019-02-17T02:58:08.980Z,101146.30
2019-02-17T02:58:45.228Z,101140.05
2019-02-17T02:59:21.351Z,101140.53
2019-02-17T02:59:57.428Z,101140.20
2019-02-17T03:00:33.709Z,101143.33
2019-02-17T03:01:10.695Z,101139.00
2019-02-17T03:01:46.823Z,101146.13
2019-02-17T03:02:22.798Z,101138.13
2019-02-17T03:02:58.945Z,101142.20
2019-02-17T03:03:35.276Z,101144.85
2019-02-17T03:04:11.471Z,101146.21
2019-02-17T03:04:47.513Z,101141.89
2019-02-17T03:05:23.732Z,101143.97
2019-02-17T03:06:09.531Z,101139.57
2019-02-17T03:07:10.575Z,101143.41
2019-02-17T03:07:46.774Z,101144.85
2019-02-17T03:08:22.920Z,101146.86
2019-02-17T03:08:59.088Z,101150.84
2019-02-17T03:09:35.291Z,101149.01
2019-02-17T03:10:11.742Z,101147.08
2019-02-17T03:10:47.906Z,101149.17
2019-02-17T03:11:24.166Z,101147.56
2019-02-17T03:12:00.421Z,101151.50
2019-02-17T03:12:36.664Z,101144.12
2019-02-17T03:13:12.732Z,101143.17
2019-02-17T03:13:48.770Z,101145.02
2019-02-17T03:14:24.989Z,101146.56
2019-02-17T03:15:01.114Z,101148.13
2019-02-17T03:15:37.296Z,101144.76
2019-02-17T03:16:13.367Z,101145.00
2019-02-17T03:16:49.556Z,101140.99
2019-02-17T03:17:25.718Z,101148.28
2019-02-17T03:18:01.715Z,101144.84
2019-02-17T03:18:37.940Z,101150.23
2019-02-17T03:19:14.080Z,101140.70
2019-02-17T03:19:50.207Z,101140.94
2019-02-17T03:20:26.341Z,101144.94
2019-02-17T03:21:02.318Z,101144.38
2019-02-17T03:21:38.523Z,101143.26
2019-02-17T03:22:14.838Z,101140.45
2019-02-17T03:22:51.183Z,101137.41
2019-02-17T03:23:27.480Z,101136.28
2019-02-17T03:24:03.626Z,101134.59
2019-02-17T03:24:39.735Z,101140.37
2019-02-17T03:25:15.770Z,101136.28
2019-02-17T03:25:51.709Z,101137.88
2019-02-17T03:26:27.858Z,101137.64
2019-02-17T03:27:03.950Z,101135.64
2019-02-17T03:27:39.911Z,101138.13
2019-02-17T03:28:15.973Z,101140.77
2019-02-17T03:28:52.118Z,101135.64
2019-02-17T03:29:28.446Z,101135.88
2019-02-17T03:30:06.228Z,101142.92
2019-02-17T03:30:42.483Z,101138.44
2019-02-17T03:31:18.596Z,101139.71
2019-02-17T03:31:54.680Z,101135.33
2019-02-17T03:32:31.017Z,101140.16
2019-02-17T03:33:07.259Z,101141.77
2019-02-17T03:33:43.443Z,101138.39
2019-02-17T03:34:19.659Z,101138.87
2019-02-17T03:34:55.834Z,101141.84
2019-02-17T03:35:31.892Z,101140.47
2019-02-17T03:36:08.207Z,101135.50
2019-02-17T03:36:44.397Z,101133.25
2019-02-17T03:37:20.607Z,101134.29
2019-02-17T03:37:56.728Z,101128.42
2019-02-17T03:38:32.901Z,101128.75
2019-02-17T03:39:09.560Z,101126.50
2019-02-17T03:39:45.722Z,101126.50
2019-02-17T03:40:21.883Z,101116.58
2019-02-17T03:40:58.095Z,101123.30
2019-02-17T03:41:34.266Z,101121.84
2019-02-17T03:42:10.312Z,101118.00
2019-02-17T03:42:46.571Z,101121.61
2019-02-17T03:43:22.666Z,101120.48
2019-02-17T03:43:58.897Z,101121.55
2019-02-17T03:44:35.017Z,101120.25
2019-02-17T03:45:11.177Z,101119.77
2019-02-17T03:45:47.434Z,101118.64
2019-02-17T03:46:23.731Z,101116.01
2019-02-17T03:46:59.889Z,101113.20
2019-02-17T03:47:36.065Z,101115.45
2019-02-17T03:48:12.138Z,101116.63
2019-02-17T03:48:48.223Z,101113.34
2019-02-17T03:49:24.225Z,101114.14
2019-02-17T03:50:00.684Z,101115.59
2019-02-17T03:50:36.918Z,101115.50
2019-02-17T03:51:13.249Z,101115.50
2019-02-17T03:51:49.518Z,101109.16
2019-02-17T03:52:25.763Z,101114.44
2019-02-17T03:53:01.812Z,101108.98
2019-02-17T03:53:37.816Z,101111.09
2019-02-17T03:54:13.906Z,101111.42
2019-02-17T03:54:50.024Z,101112.22
2019-02-17T03:55:26.125Z,101113.91
2019-02-17T03:56:02.562Z,101109.58
2019-02-17T03:56:38.778Z,101107.09
2019-02-17T03:57:14.948Z,101109.34
2019-02-17T03:57:51.275Z,101109.73
2019-02-17T03:58:27.450Z,101105.31
2019-02-17T03:59:03.577Z,101104.42
2019-02-17T03:59:39.842Z,101107.05
2019-02-17T04:00:17.295Z,101104.24
2019-02-17T04:00:53.875Z,101104.24
2019-02-17T04:01:29.963Z,101102.41
2019-02-17T04:02:06.293Z,101105.04
2019-02-17T04:02:42.459Z,101104.71
2019-02-17T04:03:18.677Z,101105.78
2019-02-17T04:03:54.857Z,101098.63
2019-02-17T04:04:31.047Z,101101.59
2019-02-17T04:05:07.260Z,101098.25
2019-02-17T04:05:43.289Z,101097.59
2019-02-17T04:06:19.473Z,101101.45
2019-02-17T04:06:55.530Z,101095.98
2019-02-17T04:07:31.857Z,101100.79
2019-02-17T04:08:08.029Z,101098.77
2019-02-17T04:08:44.028Z,101095.38
2019-02-17T04:09:20.250Z,101088.23
2019-02-17T04:09:56.845Z,101084.61
2019-02-17T04:10:32.991Z,101091.52
2019-02-17T04:11:09.189Z,101093.86
2019-02-17T04:11:45.330Z,101087.61
2019-02-17T04:12:21.379Z,101088.31
2019-02-17T04:12:57.479Z,101088.69
2019-02-17T04:13:33.460Z,101089.16
2019-02-17T04:14:09.585Z,101085.30
2019-02-17T04:14:45.872Z,101088.03
2019-02-17T04:15:22.015Z,101087.37
2019-02-17T04:15:58.265Z,101084.87
2019-02-17T04:16:34.481Z,101084.78
2019-02-17T04:17:10.719Z,101084.45
2019-02-17T04:17:46.696Z,101086.05
2019-02-17T04:18:22.755Z,101086.05
2019-02-17T04:18:58.770Z,101085.16
2019-02-17T04:19:34.866Z,101087.37
2019-02-17T04:20:11.257Z,101086.77
2019-02-17T04:20:47.413Z,101084.08
2019-02-17T04:21:23.517Z,101080.69
2019-02-17T04:21:59.720Z,101084.64
2019-02-17T04:22:35.793Z,101083.00
2019-02-17T04:23:11.956Z,101082.30
2019-02-17T04:23:48.094Z,101076.99
2019-02-17T04:24:24.401Z,101075.86
2019-02-17T04:25:00.537Z,101076.36
2019-02-17T04:25:37.111Z,101065.69
2019-02-17T04:26:13.188Z,101069.88
2019-02-17T04:26:49.302Z,101068.41
2019-02-17T04:27:25.587Z,101064.13
2019-02-17T04:28:01.857Z,101062.30
2019-02-17T04:28:38.146Z,101061.64
2019-02-17T04:29:14.266Z,101062.77
2019-02-17T04:29:50.311Z,101060.17
2019-02-17T04:30:29.598Z,101061.21
2019-02-17T04:31:04.176Z,101056.31
2019-02-17T04:31:40.541Z,101054.05
2019-02-17T04:32:16.667Z,101052.03
2019-02-17T04:32:52.688Z,101052.27
2019-02-17T04:33:28.750Z,101059.89
2019-02-17T04:34:04.883Z,101051.70
2019-02-17T04:34:41.058Z,101053.77
2019-02-17T04:35:17.211Z,101050.97
2019-02-17T04:35:53.210Z,101051.77
2019-02-17T04:36:29.304Z,101054.73
2019-02-17T04:37:05.305Z,101050.64
2019-02-17T04:37:41.632Z,101045.41
2019-02-17T04:38:17.871Z,101048.61
2019-02-17T04:38:54.023Z,101043.31
2019-02-17T04:39:30.055Z,101042.31
2019-02-17T04:40:06.276Z,101045.52
2019-02-17T04:40:42.510Z,101045.18
2019-02-17T04:41:18.557Z,101035.73
2019-02-17T04:41:54.718Z,101043.78
2019-02-17T04:42:31.002Z,101029.27
2019-02-17T04:43:07.297Z,101034.96
2019-02-17T04:43:43.349Z,101032.00
2019-02-17T04:44:19.444Z,101029.84
2019-02-17T04:44:55.503Z,101034.96
2019-02-17T04:45:31.635Z,101029.10
2019-02-17T04:46:08.425Z,101027.07
2019-02-17T04:46:44.411Z,101032.09
2019-02-17T04:47:20.633Z,101027.10
2019-02-17T04:47:56.878Z,101028.53
2019-02-17T04:48:32.886Z,101029.69
2019-02-17T04:49:09.132Z,101029.25
2019-02-17T04:49:45.328Z,101026.29
2019-02-17T04:50:21.416Z,101019.26
2019-02-17T04:50:57.676Z,101023.35
2019-02-17T04:51:33.865Z,101019.83
2019-02-17T04:52:10.071Z,101024.72
2019-02-17T04:52:46.148Z,101021.55
2019-02-17T04:53:22.416Z,101020.98
2019-02-17T04:53:58.462Z,101022.02
2019-02-17T04:54:34.594Z,101018.75
2019-02-17T04:55:10.746Z,101019.33
2019-02-17T04:55:46.754Z,101025.48
2019-02-17T04:56:22.942Z,101016.39
2019-02-17T04:56:59.234Z,101018.48
2019-02-17T04:57:35.352Z,101014.16
2019-02-17T04:58:11.600Z,101015.52
2019-02-17T04:58:48.483Z,101012.50
2019-02-17T04:59:24.813Z,101011.38
2019-02-17T05:00:00.965Z,101009.10
2019-02-17T05:00:40.098Z,101008.20
2019-02-17T05:01:14.990Z,101013.43
2019-02-17T05:01:51.343Z,101009.48
2019-02-17T05:02:27.621Z,101011.19
2019-02-17T05:03:03.714Z,101005.95
2019-02-17T05:03:39.985Z,101002.53
2019-02-17T05:04:16.224Z,101001.45
2019-02-17T05:04:52.307Z,100999.48
2019-02-17T05:05:28.550Z,100997.69
2019-02-17T05:06:04.597Z,100991.00
2019-02-17T05:06:41.010Z,100982.64
2019-02-17T05:07:17.183Z,100995.16
2019-02-17T05:07:53.261Z,100991.49
2019-02-17T05:08:29.832Z,100987.86
2019-02-17T05:09:06.524Z,100980.84
2019-02-17T05:09:42.574Z,100985.20
2019-02-17T05:10:18.778Z,100988.39
2019-02-17T05:10:54.960Z,100990.45
2019-02-17T05:11:31.253Z,100987.39
2019-02-17T05:12:07.489Z,100988.08
2019-02-17T05:12:43.489Z,100980.09
2019-02-17T05:13:19.498Z,100984.19
2019-02-17T05:13:55.695Z,100979.73
2019-02-17T05:14:31.798Z,100980.09
2019-02-17T05:15:08.559Z,100978.60
2019-02-17T05:15:44.823Z,100980.09
2019-02-17T05:16:21.025Z,100977.03
2019-02-17T05:16:57.303Z,100979.30
2019-02-17T05:17:33.454Z,100978.55
2019-02-17T05:18:09.513Z,100976.74
2019-02-17T05:18:45.548Z,100972.02
2019-02-17T05:19:21.869Z,100981.00
2019-02-17T05:19:57.982Z,100969.75
2019-02-17T05:20:34.219Z,100977.50
2019-02-17T05:21:10.322Z,100974.33
2019-02-17T05:21:46.278Z,100968.13
2019-02-17T05:22:22.422Z,100969.39
2019-02-17T05:22:58.645Z,100972.24
2019-02-17T05:23:34.787Z,100973.81
2019-02-17T05:24:10.922Z,100968.92
2019-02-17T05:24:46.987Z,100966.89
2019-02-17T05:25:23.064Z,100967.35
2019-02-17T05:25:59.223Z,100964.62
2019-02-17T05:26:35.461Z,100965.08
2019-02-17T05:27:11.659Z,100967.14
2019-02-17T05:27:47.633Z,100966.67
2019-02-17T05:28:23.893Z,100964.64
2019-02-17T05:28:59.900Z,100966.70
2019-02-17T05:29:35.973Z,100961.05
2019-02-17T05:30:12.331Z,100961.28
2019-02-17T05:30:53.000Z,100960.61
2019-02-17T05:31:26.468Z,100956.05
2019-02-17T05:32:02.431Z,100958.22
2019-02-17T05:32:38.449Z,100952.88
2019-02-17T05:33:14.682Z,100957.88
2019-02-17T05:33:50.682Z,100950.14
2019-02-17T05:34:26.908Z,100950.83
2019-02-17T05:35:03.109Z,100948.82
2019-02-17T05:35:39.135Z,100948.61
2019-02-17T05:36:15.212Z,100954.30
2019-02-17T05:36:51.413Z,100954.11
2019-02-17T05:37:27.489Z,100949.33
2019-02-17T05:38:03.635Z,100946.82
2019-02-17T05:38:39.916Z,100947.28
2019-02-17T05:39:15.927Z,100952.41
2019-02-17T05:39:52.262Z,100945.80
2019-02-17T05:40:28.461Z,100943.27
2019-02-17T05:41:04.659Z,100943.02
2019-02-17T05:41:40.969Z,100948.36
2019-02-17T05:42:17.093Z,100947.62
2019-02-17T05:42:53.241Z,100941.45
2019-02-17T05:43:29.303Z,100946.61
2019-02-17T05:44:05.391Z,100943.70
2019-02-17T05:44:41.500Z,100944.00
2019-02-17T05:45:17.569Z,100938.70
2019-02-17T05:45:53.709Z,100939.16
2019-02-17T05:46:29.684Z,100937.67
2019-02-17T05:47:05.797Z,100938.81
2019-02-17T05:47:41.893Z,100937.67
2019-02-17T05:48:18.036Z,100928.45
2019-02-17T05:48:54.141Z,100924.70
2019-02-17T05:49:30.252Z,100927.42
2019-02-17T05:50:06.634Z,100923.90
2019-02-17T05:50:42.852Z,100926.52
2019-02-17T05:51:19.049Z,100922.54
2019-02-17T05:51:55.294Z,100922.66
2019-02-17T05:52:31.526Z,100916.05
2019-02-17T05:53:07.554Z,100921.41
2019-02-17T05:53:43.724Z,100920.53
2019-02-17T05:54:19.896Z,100914.95
2019-02-17T05:54:56.025Z,100918.82
2019-02-17T05:55:32.139Z,100913.13
2019-02-17T05:56:08.197Z,100911.09
2019-02-17T05:56:45.113Z,100913.82
2019-02-17T05:57:21.871Z,100908.01
2019-02-17T05:57:58.722Z,100913.36
2019-02-17T05:58:35.567Z,100910.06
2019-02-17T05:59:12.410Z,100912.56
2019-02-17T05:59:49.147Z,100907.21
2019-02-17T06:00:31.800Z,100906.30
2019-02-17T06:01:08.488Z,100904.59
2019-02-17T06:01:45.221Z,100895.83
2019-02-17T06:02:21.950Z,100895.72
2019-02-17T06:02:58.851Z,100898.56
2019-02-17T06:03:35.602Z,100892.41
2019-02-17T06:04:12.556Z,100894.50
2019-02-17T06:04:49.243Z,100892.56
2019-02-17T06:05:26.134Z,100889.25
2019-02-17T06:06:02.971Z,100887.32
2019-02-17T06:06:39.792Z,100883.77
2019-02-17T06:07:15.917Z,100889.11
2019-02-17T06:07:52.129Z,100883.76
2019-02-17T06:08:28.177Z,100883.64
2019-02-17T06:09:05.087Z,100881.48
2019-02-17T06:09:41.086Z,100883.30
2019-02-17T06:10:17.329Z,100882.62
2019-02-17T06:10:53.455Z,100881.78
2019-02-17T06:11:29.493Z,100879.59
2019-02-17T06:12:05.633Z,100882.77
2019-02-17T06:12:41.575Z,100882.36
2019-02-17T06:13:17.570Z,100877.91
2019-02-17T06:13:53.783Z,100885.43
2019-02-17T06:14:29.957Z,100880.34
2019-02-17T06:15:06.026Z,100877.37
2019-02-17T06:15:42.146Z,100877.37
2019-02-17T06:16:18.195Z,100871.09
2019-02-17T06:16:54.288Z,100875.82
2019-02-17T06:17:30.451Z,100871.45
2019-02-17T06:18:06.466Z,100866.34
2019-02-17T06:18:42.513Z,100866.34
2019-02-17T06:19:18.595Z,100869.29
2019-02-17T06:19:54.558Z,100868.61
2019-02-17T06:20:30.703Z,100864.97
2019-02-17T06:21:07.039Z,100863.87
2019-02-17T06:21:43.055Z,100865.92
2019-02-17T06:22:19.174Z,100860.98
2019-02-17T06:22:55.232Z,100864.05
2019-02-17T06:23:31.439Z,100864.03
2019-02-17T06:24:07.701Z,100864.90
2019-02-17T06:24:43.796Z,100863.28
2019-02-17T06:25:19.898Z,100862.55
2019-02-17T06:25:56.155Z,100856.11
2019-02-17T06:26:32.312Z,100863.17
2019-02-17T06:27:08.427Z,100853.16
2019-02-17T06:27:44.407Z,100858.15
2019-02-17T06:28:20.648Z,100850.15
2019-02-17T06:28:56.888Z,100853.16
2019-02-17T06:29:32.965Z,100842.58
2019-02-17T06:30:09.418Z,100847.58
2019-02-17T06:30:45.445Z,100842.78
2019-02-17T06:31:21.568Z,100835.27
2019-02-17T06:31:57.667Z,100837.33
2019-02-17T06:32:33.781Z,100835.30
2019-02-17T06:33:09.943Z,100836.45
2019-02-17T06:33:46.208Z,100833.16
2019-02-17T06:34:22.365Z,100832.13
2019-02-17T06:34:58.562Z,100833.03
2019-02-17T06:35:34.698Z,100834.86
2019-02-17T06:36:10.766Z,100830.59
2019-02-17T06:36:46.938Z,100831.95
2019-02-17T06:37:23.039Z,100827.42
2019-02-17T06:37:59.083Z,100825.16
2019-02-17T06:38:35.211Z,100825.39
2019-02-17T06:39:11.483Z,100831.20
2019-02-17T06:39:47.468Z,100828.13
2019-02-17T06:40:23.600Z,100823.27
2019-02-17T06:40:59.637Z,100822.84
2019-02-17T06:41:35.730Z,100820.34
2019-02-17T06:42:11.878Z,100825.03
2019-02-17T06:42:48.085Z,100818.88
2019-02-17T06:43:24.215Z,100816.55
2019-02-17T06:44:00.187Z,100812.20
2019-02-17T06:44:36.362Z,100810.83
2019-02-17T06:45:12.709Z,100813.27
2019-02-17T06:45:49.117Z,100811.21
2019-02-17T06:46:29.130Z,100813.02
2019-02-17T06:47:07.397Z,100805.91
2019-02-17T06:47:43.593Z,100808.17
2019-02-17T06:48:19.779Z,100810.28
2019-02-17T06:48:55.903Z,100806.19
2019-02-17T06:49:32.100Z,100805.36
2019-02-17T06:50:08.698Z,100799.55
2019-02-17T06:50:44.659Z,100799.21
2019-02-17T06:51:20.772Z,100795.28
2019-02-17T06:51:57.027Z,100791.58
2019-02-17T06:52:33.311Z,100796.08
2019-02-17T06:53:09.376Z,100790.13
2019-02-17T06:53:45.613Z,100791.27
2019-02-17T06:54:21.839Z,100786.25